Time;durP1;ratioP1;P1;durP2;ratioP2;P2;SDS_P1;SDS_P2;PMS_P1;PMS_P2;Temp;Humidity;BMP_temperature;BMP_pressure;BME280_temperature;BME280_humidity;BME280_pressure;Samples;Min_cycle;Max_cycle;Signal;HPM_P1;HPM_P2
2023/05/19 00:00:20;;;;;;;;;;;11.80;99.90;;;;;;5071439;28;19908;-76
2023/05/19 00:02:46;;;;;;;;;;;11.80;99.90;;;;;;5071246;28;19974;-77
2023/05/19 00:05:13;;;;;;;;;;;11.70;99.90;;;;;;5071486;28;19915;-76
2023/05/19 00:07:40;;;;;;;;;;;11.70;99.90;;;;;;5071357;28;19954;-76
2023/05/19 00:10:06;;;;;;;;;;;11.70;99.90;;;;;;5071106;28;19909;-77
2023/05/19 00:12:31;;;;;;;;;;;11.60;99.90;;;;;;5070501;28;20041;-76
2023/05/19 00:14:57;;;;;;;;;;;11.60;99.90;;;;;;5070989;28;19908;-77
2023/05/19 00:17:23;;;;;;;;;;;11.60;99.90;;;;;;5071271;28;19944;-76
2023/05/19 00:19:48;;;;;;;;;;;11.60;99.90;;;;;;5071078;28;20273;-76
2023/05/19 00:22:14;;;;;;;;;;;11.60;99.90;;;;;;5071075;28;19915;-76
2023/05/19 00:24:40;;;;;;;;;;;11.50;99.90;;;;;;5070730;28;19904;-76
2023/05/19 00:27:05;;;;;;;;;;;11.50;99.90;;;;;;5070974;28;20292;-76
2023/05/19 00:29:31;;;;;;;;;;;11.50;99.90;;;;;;5070800;28;19955;-76
2023/05/19 00:31:56;;;;;;;;;;;11.50;99.90;;;;;;5070779;28;19920;-76
2023/05/19 00:34:22;;;;;;;;;;;11.60;99.90;;;;;;5070908;28;20281;-77
2023/05/19 00:36:47;;;;;;;;;;;11.60;99.90;;;;;;5086211;28;19950;-76
2023/05/19 00:39:13;;;;;;;;;;;11.50;99.90;;;;;;5070813;28;20015;-76
2023/05/19 00:41:38;;;;;;;;;;;11.50;99.90;;;;;;5070654;28;19915;-76
2023/05/19 00:44:05;;;;;;;;;;;11.50;99.90;;;;;;5070682;28;19982;-77
2023/05/19 00:46:31;;;;;;;;;;;11.50;99.90;;;;;;5070733;28;19960;-76
2023/05/19 00:48:56;;;;;;;;;;;11.50;99.90;;;;;;5070395;28;19927;-77
2023/05/19 00:51:24;;;;;;;;;;;11.40;99.90;;;;;;5070329;28;20446;-76
2023/05/19 00:53:50;;;;;;;;;;;11.30;99.90;;;;;;5070481;28;19944;-77
2023/05/19 00:56:17;;;;;;;;;;;11.30;99.90;;;;;;5070383;28;20273;-76
2023/05/19 00:58:42;;;;;;;;;;;11.30;99.90;;;;;;5070303;28;19908;-77
2023/05/19 01:01:08;;;;;;;;;;;11.30;99.90;;;;;;5070412;28;19908;-76
2023/05/19 01:03:34;;;;;;;;;;;11.30;99.90;;;;;;5070284;28;20395;-77
2023/05/19 01:06:03;;;;;;;;;;;11.30;99.90;;;;;;5068911;28;19908;-77
2023/05/19 01:08:33;;;;;;;;;;;11.30;99.90;;;;;;5068829;28;19908;-78
2023/05/19 01:10:58;;;;;;;;;;;11.20;99.90;;;;;;5069899;28;19912;-78
2023/05/19 01:13:25;;;;;;;;;;;11.20;99.90;;;;;;5068700;28;19957;-77
2023/05/19 01:16:11;;;;;;;;;;;11.20;99.90;;;;;;5069985;28;19905;-77
2023/05/19 01:18:54;;;;;;;;;;;11.20;99.90;;;;;;5069786;28;19920;-77
2023/05/19 01:21:22;;;;;;;;;;;11.10;99.90;;;;;;5069502;28;19908;-76
2023/05/19 01:23:55;;;;;;;;;;;11.10;99.90;;;;;;5067424;28;20304;-76
2023/05/19 01:26:40;;;;;;;;;;;11.10;99.90;;;;;;5068364;28;19908;-75
2023/05/19 01:29:11;;;;;;;;;;;11.00;99.90;;;;;;5068233;28;19920;-76
2023/05/19 01:31:38;;;;;;;;;;;11.00;99.90;;;;;;5069624;28;19920;-75
2023/05/19 01:34:05;;;;;;;;;;;11.00;99.90;;;;;;5069618;28;19912;-76
2023/05/19 01:36:31;;;;;;;;;;;10.90;99.90;;;;;;5085617;28;19908;-76
2023/05/19 01:38:58;;;;;;;;;;;10.90;99.90;;;;;;5069327;28;19961;-76
2023/05/19 01:41:24;;;;;;;;;;;10.90;99.90;;;;;;5085018;28;20385;-75
2023/05/19 01:43:50;;;;;;;;;;;10.90;99.90;;;;;;5068118;28;19969;-76
2023/05/19 01:46:16;;;;;;;;;;;10.90;99.90;;;;;;5069420;28;19909;-77
2023/05/19 01:48:44;;;;;;;;;;;10.90;99.90;;;;;;5069090;28;20006;-77
2023/05/19 01:51:10;;;;;;;;;;;10.90;99.90;;;;;;5069256;28;19923;-76
2023/05/19 01:53:36;;;;;;;;;;;10.80;99.90;;;;;;5069248;28;20398;-76
2023/05/19 01:56:01;;;;;;;;;;;10.90;99.90;;;;;;5084724;28;19904;-77
2023/05/19 01:58:36;;;;;;;;;;;10.90;99.90;;;;;;5069206;28;19995;-77
2023/05/19 02:01:01;;;;;;;;;;;10.90;99.90;;;;;;5069016;28;20358;-76
2023/05/19 02:03:52;;;;;;;;;;;10.90;99.90;;;;;;5069033;28;20529;-76
2023/05/19 02:06:21;;;;;;;;;;;11.00;99.90;;;;;;5069083;28;19912;-77
2023/05/19 02:08:55;;;;;;;;;;;11.00;99.90;;;;;;5068779;28;19913;-77
2023/05/19 02:11:26;;;;;;;;;;;11.00;99.90;;;;;;5068983;28;19935;-76
2023/05/19 02:13:55;;;;;;;;;;;11.00;99.90;;;;;;5069030;28;19905;-76
2023/05/19 02:16:27;;;;;;;;;;;11.00;99.90;;;;;;5069133;28;19909;-75
2023/05/19 02:18:54;;;;;;;;;;;11.00;99.90;;;;;;5068854;28;20070;-75
2023/05/19 02:21:19;;;;;;;;;;;11.00;99.90;;;;;;5067723;28;19915;-76
2023/05/19 02:23:45;;;;;;;;;;;11.00;99.90;;;;;;5069241;28;19904;-76
2023/05/19 02:26:11;;;;;;;;;;;11.00;99.90;;;;;;5068847;28;19944;-76
2023/05/19 02:28:36;;;;;;;;;;;10.90;99.90;;;;;;5068586;28;19954;-78
2023/05/19 02:31:05;;;;;;;;;;;10.80;99.90;;;;;;5068817;28;19958;-77
2023/05/19 02:33:30;;;;;;;;;;;10.80;99.90;;;;;;5084216;28;20270;-78
2023/05/19 02:35:56;;;;;;;;;;;10.80;99.90;;;;;;5074929;28;19920;-76
2023/05/19 02:38:22;;;;;;;;;;;10.70;99.90;;;;;;5075636;28;19904;-76
2023/05/19 02:40:47;;;;;;;;;;;10.80;99.90;;;;;;5073975;28;20314;-78
2023/05/19 02:43:13;;;;;;;;;;;10.80;99.90;;;;;;5075423;28;19908;-77
2023/05/19 02:45:38;;;;;;;;;;;10.80;99.90;;;;;;5073847;28;19909;-78
2023/05/19 02:48:04;;;;;;;;;;;10.70;99.90;;;;;;5091293;28;19995;-76
2023/05/19 02:50:29;;;;;;;;;;;10.60;99.90;;;;;;5075209;28;19916;-78
2023/05/19 02:52:55;;;;;;;;;;;10.50;99.90;;;;;;5074115;28;19919;-78
2023/05/19 02:55:20;;;;;;;;;;;10.40;99.90;;;;;;5075320;28;20277;-77
2023/05/19 02:57:46;;;;;;;;;;;10.40;99.90;;;;;;5075618;28;19905;-77
2023/05/19 03:00:11;;;;;;;;;;;10.30;99.90;;;;;;5075721;28;19969;-78
2023/05/19 03:02:38;;;;;;;;;;;10.30;99.90;;;;;;5075204;28;19908;-77
2023/05/19 03:05:04;;;;;;;;;;;10.30;99.90;;;;;;5075245;28;19910;-78
2023/05/19 03:07:29;;;;;;;;;;;10.20;99.90;;;;;;5075287;28;19991;-77
2023/05/19 03:09:55;;;;;;;;;;;10.20;99.90;;;;;;5075037;28;19940;-76
2023/05/19 03:12:20;;;;;;;;;;;10.20;99.90;;;;;;5075089;28;19916;-76
2023/05/19 03:14:46;;;;;;;;;;;10.20;99.90;;;;;;5075136;28;20037;-79
2023/05/19 03:17:12;;;;;;;;;;;10.20;99.90;;;;;;5074282;28;19908;-78
2023/05/19 03:19:37;;;;;;;;;;;10.20;99.90;;;;;;5075137;28;19904;-77
2023/05/19 03:22:03;;;;;;;;;;;10.30;99.90;;;;;;5075042;28;19908;-77
2023/05/19 03:24:29;;;;;;;;;;;10.30;99.90;;;;;;5073687;28;19911;-77
2023/05/19 03:26:55;;;;;;;;;;;10.30;99.90;;;;;;5074698;28;19908;-78
2023/05/19 03:29:20;;;;;;;;;;;10.40;99.90;;;;;;5074709;28;19920;-77
2023/05/19 03:31:46;;;;;;;;;;;10.30;99.90;;;;;;5074904;28;19974;-76
2023/05/19 03:34:11;;;;;;;;;;;10.30;99.90;;;;;;5090913;28;19908;-78
2023/05/19 03:36:40;;;;;;;;;;;10.30;99.90;;;;;;5090530;28;19912;-77
2023/05/19 03:39:05;;;;;;;;;;;10.40;99.90;;;;;;5075027;28;19991;-78
2023/05/19 03:41:31;;;;;;;;;;;10.50;99.90;;;;;;5074863;28;19999;-78
2023/05/19 03:43:56;;;;;;;;;;;10.60;99.90;;;;;;5074785;28;19919;-78
2023/05/19 03:46:22;;;;;;;;;;;10.60;99.90;;;;;;5072070;28;19908;-78
2023/05/19 03:48:48;;;;;;;;;;;10.70;99.90;;;;;;5071553;28;19962;-78
2023/05/19 03:51:13;;;;;;;;;;;10.70;99.90;;;;;;5071544;28;19919;-78
2023/05/19 03:53:40;;;;;;;;;;;10.70;99.90;;;;;;5071509;28;20438;-78
2023/05/19 03:56:06;;;;;;;;;;;10.80;99.90;;;;;;5071484;28;19927;-78
2023/05/19 03:58:32;;;;;;;;;;;10.80;99.90;;;;;;5071494;28;19918;-78
2023/05/19 04:00:57;;;;;;;;;;;10.90;99.90;;;;;;5070092;28;19908;-78
2023/05/19 04:03:24;;;;;;;;;;;11.00;99.90;;;;;;5070382;28;19982;-78
2023/05/19 04:05:50;;;;;;;;;;;11.00;99.90;;;;;;5071278;28;19915;-78
2023/05/19 04:08:16;;;;;;;;;;;11.10;99.90;;;;;;5071004;28;19908;-77
2023/05/19 04:10:41;;;;;;;;;;;11.10;99.90;;;;;;5070987;28;19958;-78
2023/05/19 04:13:07;;;;;;;;;;;11.20;99.90;;;;;;5071243;28;19908;-78
2023/05/19 04:15:32;;;;;;;;;;;11.20;99.90;;;;;;5070953;28;19909;-79
2023/05/19 04:17:58;;;;;;;;;;;11.30;99.90;;;;;;5070944;28;19909;-78
2023/05/19 04:20:24;;;;;;;;;;;11.30;99.90;;;;;;5071082;28;20446;-77
2023/05/19 04:22:49;;;;;;;;;;;11.30;99.90;;;;;;5070742;28;20561;-78
2023/05/19 04:25:15;;;;;;;;;;;11.40;99.90;;;;;;5070972;28;20377;-77
2023/05/19 04:27:41;;;;;;;;;;;11.40;99.90;;;;;;5086702;28;20527;-78
2023/05/19 04:30:07;;;;;;;;;;;11.50;99.90;;;;;;5070643;28;19920;-78
2023/05/19 04:32:33;;;;;;;;;;;11.50;99.90;;;;;;5069475;28;19956;-78
2023/05/19 04:34:58;;;;;;;;;;;11.60;99.90;;;;;;5069232;28;19947;-78
2023/05/19 04:37:24;;;;;;;;;;;11.60;99.90;;;;;;5070812;28;19959;-78
2023/05/19 04:39:51;;;;;;;;;;;11.70;99.90;;;;;;5070864;28;19909;-78
2023/05/19 04:42:18;;;;;;;;;;;11.70;99.90;;;;;;5070492;28;19920;-77
2023/05/19 04:44:44;;;;;;;;;;;11.70;99.90;;;;;;5069142;28;19954;-78
2023/05/19 04:47:09;;;;;;;;;;;11.70;99.90;;;;;;5070303;28;19912;-77
2023/05/19 04:49:38;;;;;;;;;;;11.80;99.90;;;;;;5070241;28;19915;-76
2023/05/19 04:52:05;;;;;;;;;;;11.80;99.90;;;;;;5070115;28;19959;-77
2023/05/19 04:54:31;;;;;;;;;;;11.90;99.90;;;;;;5070394;28;19904;-77
2023/05/19 04:56:56;;;;;;;;;;;11.90;99.90;;;;;;5069927;28;19935;-77
2023/05/19 04:59:22;;;;;;;;;;;11.90;99.90;;;;;;5070250;28;19908;-78
2023/05/19 05:01:47;;;;;;;;;;;11.90;99.90;;;;;;5070176;28;19965;-78
2023/05/19 05:04:13;;;;;;;;;;;11.90;99.90;;;;;;5068763;28;19904;-78
2023/05/19 05:06:41;;;;;;;;;;;11.90;99.90;;;;;;5069418;28;19908;-77
2023/05/19 05:09:06;;;;;;;;;;;11.80;99.90;;;;;;5069627;28;19908;-76
2023/05/19 05:11:32;;;;;;;;;;;11.80;99.90;;;;;;5069889;28;20011;-77
2023/05/19 05:13:58;;;;;;;;;;;11.90;99.90;;;;;;5069938;28;20288;-77
2023/05/19 05:16:23;;;;;;;;;;;12.00;99.90;;;;;;5068726;28;19960;-77
2023/05/19 05:18:49;;;;;;;;;;;11.90;99.90;;;;;;5068390;28;19965;-77
2023/05/19 05:21:15;;;;;;;;;;;12.10;99.90;;;;;;5069581;28;20053;-78
2023/05/19 05:23:40;;;;;;;;;;;12.20;99.90;;;;;;5085535;28;19911;-78
2023/05/19 05:26:09;;;;;;;;;;;12.20;99.90;;;;;;5069734;28;19908;-78
2023/05/19 05:28:34;;;;;;;;;;;12.20;99.90;;;;;;5068047;28;20011;-78
2023/05/19 05:31:00;;;;;;;;;;;12.30;99.90;;;;;;5069380;28;20057;-78
2023/05/19 05:33:25;;;;;;;;;;;12.30;99.90;;;;;;5069475;28;19943;-78
2023/05/19 05:35:51;;;;;;;;;;;12.30;99.90;;;;;;5069308;28;19919;-74
2023/05/19 05:38:17;;;;;;;;;;;12.40;99.90;;;;;;5069435;28;20050;-78
2023/05/19 05:40:42;;;;;;;;;;;12.50;99.90;;;;;;5069409;28;19953;-78
2023/05/19 05:43:08;;;;;;;;;;;12.60;99.90;;;;;;5067636;28;19915;-76
2023/05/19 05:45:33;;;;;;;;;;;12.90;99.90;;;;;;5084691;28;19915;-77
2023/05/19 05:47:59;;;;;;;;;;;13.10;99.90;;;;;;5069304;28;20284;-78
2023/05/19 05:50:24;;;;;;;;;;;13.20;99.90;;;;;;5069213;28;19917;-79
2023/05/19 05:52:52;;;;;;;;;;;13.30;99.90;;;;;;5068869;28;19951;-77
2023/05/19 05:55:18;;;;;;;;;;;13.40;99.90;;;;;;5069522;28;19931;-77
2023/05/19 05:57:43;;;;;;;;;;;13.50;99.90;;;;;;5069173;28;19912;-78
2023/05/19 06:00:14;;;;;;;;;;;13.40;99.90;;;;;;5084792;28;19908;-78
2023/05/19 06:02:49;;;;;;;;;;;13.50;99.90;;;;;;5069113;28;20014;-77
2023/05/19 06:05:15;;;;;;;;;;;13.50;99.90;;;;;;5067577;28;20343;-77
2023/05/19 06:07:40;;;;;;;;;;;13.60;99.90;;;;;;5068845;28;20443;-78
2023/05/19 06:10:07;;;;;;;;;;;13.80;99.90;;;;;;5068238;28;19947;-77
2023/05/19 06:12:33;;;;;;;;;;;14.00;99.90;;;;;;5068981;28;20395;-78
2023/05/19 06:14:59;;;;;;;;;;;14.10;99.90;;;;;;5068588;28;19904;-76
2023/05/19 06:17:24;;;;;;;;;;;14.20;99.90;;;;;;5068983;28;20349;-76
2023/05/19 06:19:50;;;;;;;;;;;14.40;99.90;;;;;;5068951;28;19904;-76
2023/05/19 06:22:17;;;;;;;;;;;14.70;99.90;;;;;;5068896;28;19908;-76
2023/05/19 06:24:43;;;;;;;;;;;14.90;99.90;;;;;;5068768;28;20427;-78
2023/05/19 06:27:09;;;;;;;;;;;15.00;99.90;;;;;;5068717;28;19904;-78
2023/05/19 06:29:34;;;;;;;;;;;15.10;99.90;;;;;;5068582;28;19920;-76
2023/05/19 06:32:00;;;;;;;;;;;15.10;99.90;;;;;;5068417;28;19962;-77
2023/05/19 06:34:26;;;;;;;;;;;15.30;99.90;;;;;;5068767;28;19908;-77
2023/05/19 06:36:51;;;;;;;;;;;15.50;99.90;;;;;;5083771;28;19905;-77
2023/05/19 06:39:17;;;;;;;;;;;15.60;99.90;;;;;;5068576;28;19923;-78
2023/05/19 06:41:42;;;;;;;;;;;15.60;99.90;;;;;;5068309;28;19908;-76
2023/05/19 06:44:08;;;;;;;;;;;15.80;99.90;;;;;;5068497;28;19909;-77
2023/05/19 06:46:33;;;;;;;;;;;15.80;99.90;;;;;;5067400;28;19908;-77
2023/05/19 06:48:59;;;;;;;;;;;16.10;99.90;;;;;;5068338;28;19909;-78
2023/05/19 06:51:25;;;;;;;;;;;16.40;99.90;;;;;;5068470;28;19970;-78
2023/05/19 06:53:50;;;;;;;;;;;16.50;99.90;;;;;;5068761;28;19987;-78
2023/05/19 06:56:17;;;;;;;;;;;16.70;99.90;;;;;;5068628;28;19954;-78
2023/05/19 06:58:43;;;;;;;;;;;17.10;99.90;;;;;;5068440;28;19904;-79
2023/05/19 07:01:09;;;;;;;;;;;17.60;99.90;;;;;;5068489;28;20273;-78
2023/05/19 07:03:34;;;;;;;;;;;18.30;99.90;;;;;;5068456;28;19908;-78
2023/05/19 07:06:00;;;;;;;;;;;19.10;99.90;;;;;;5068439;28;19911;-79
2023/05/19 07:08:26;;;;;;;;;;;20.00;99.90;;;;;;5068367;28;19908;-78
2023/05/19 07:10:52;;;;;;;;;;;20.90;99.90;;;;;;5068271;28;19944;-77
2023/05/19 07:13:18;;;;;;;;;;;21.80;99.90;;;;;;5068142;28;19954;-77
2023/05/19 07:15:43;;;;;;;;;;;22.40;99.90;;;;;;5084014;28;20017;-76
2023/05/19 07:18:09;;;;;;;;;;;22.30;99.90;;;;;;5068138;28;19904;-77
2023/05/19 07:20:34;;;;;;;;;;;22.20;99.90;;;;;;5084070;28;20416;-76
2023/05/19 07:23:01;;;;;;;;;;;22.50;99.90;;;;;;5071064;28;19950;-77
2023/05/19 07:25:29;;;;;;;;;;;22.80;98.50;;;;;;5071885;28;19913;-76
2023/05/19 07:27:55;;;;;;;;;;;22.80;98.60;;;;;;5071969;28;19957;-76
2023/05/19 07:30:20;;;;;;;;;;;23.30;96.10;;;;;;5071737;28;19935;-77
2023/05/19 07:32:46;;;;;;;;;;;23.30;95.20;;;;;;5071531;28;19913;-76
2023/05/19 07:35:11;;;;;;;;;;;23.80;94.70;;;;;;5071751;28;19915;-77
2023/05/19 07:37:37;;;;;;;;;;;24.10;91.50;;;;;;5071721;28;19908;-76
2023/05/19 07:40:03;;;;;;;;;;;24.20;93.00;;;;;;5071527;28;20372;-76
2023/05/19 07:42:28;;;;;;;;;;;24.70;91.00;;;;;;5071582;28;19904;-76
2023/05/19 07:44:54;;;;;;;;;;;25.10;84.90;;;;;;5071702;28;19904;-77
2023/05/19 07:47:20;;;;;;;;;;;25.30;89.10;;;;;;5071588;28;20381;-76
2023/05/19 07:49:46;;;;;;;;;;;25.70;82.70;;;;;;5071586;28;20266;-78
2023/05/19 07:52:11;;;;;;;;;;;25.90;85.70;;;;;;5071298;28;19916;-77
2023/05/19 07:54:37;;;;;;;;;;;26.10;79.00;;;;;;5071464;28;20327;-76
2023/05/19 07:57:02;;;;;;;;;;;26.00;82.60;;;;;;5071034;28;19908;-77
2023/05/19 07:59:28;;;;;;;;;;;26.20;81.50;;;;;;5070986;28;19912;-78
2023/05/19 08:01:53;;;;;;;;;;;26.30;82.30;;;;;;5070030;28;19915;-78
2023/05/19 08:04:19;;;;;;;;;;;26.20;76.10;;;;;;5070722;28;20284;-76
2023/05/19 08:06:45;;;;;;;;;;;26.10;82.90;;;;;;5069569;28;19961;-77
2023/05/19 08:09:10;;;;;;;;;;;26.00;83.10;;;;;;5071062;28;19904;-78
2023/05/19 08:11:36;;;;;;;;;;;26.20;81.00;;;;;;5086737;28;19947;-76
2023/05/19 08:14:02;;;;;;;;;;;26.10;79.90;;;;;;5071054;28;19911;-78
2023/05/19 08:16:27;;;;;;;;;;;26.50;69.00;;;;;;5070785;28;19919;-76
2023/05/19 08:18:53;;;;;;;;;;;26.60;74.20;;;;;;5070602;28;19904;-76
2023/05/19 08:21:20;;;;;;;;;;;26.90;73.50;;;;;;5086516;28;19999;-76
2023/05/19 08:23:45;;;;;;;;;;;26.90;68.70;;;;;;5071024;28;19993;-77
2023/05/19 08:26:11;;;;;;;;;;;26.80;74.80;;;;;;5070731;28;20037;-76
2023/05/19 08:28:37;;;;;;;;;;;27.10;77.20;;;;;;5070986;28;19981;-77
2023/05/19 08:31:03;;;;;;;;;;;26.90;78.80;;;;;;5070750;28;19924;-77
2023/05/19 08:33:29;;;;;;;;;;;27.10;76.90;;;;;;5070215;28;19919;-76
2023/05/19 08:35:56;;;;;;;;;;;27.10;74.00;;;;;;5070730;28;19914;-76
2023/05/19 08:38:22;;;;;;;;;;;27.00;75.90;;;;;;5070635;28;19908;-77
2023/05/19 08:40:48;;;;;;;;;;;27.10;69.30;;;;;;5086117;28;19912;-77
2023/05/19 08:43:13;;;;;;;;;;;27.50;74.10;;;;;;5070469;28;20391;-76
2023/05/19 08:45:41;;;;;;;;;;;27.70;72.20;;;;;;5070740;28;19908;-76
2023/05/19 08:48:07;;;;;;;;;;;27.80;69.70;;;;;;5070124;28;19916;-77
2023/05/19 08:50:35;;;;;;;;;;;27.80;68.30;;;;;;5070195;28;19958;-77
2023/05/19 08:53:01;;;;;;;;;;;27.90;66.20;;;;;;5068636;28;19915;-77
2023/05/19 08:55:35;;;;;;;;;;;27.80;67.40;;;;;;5069906;28;19908;-76
2023/05/19 08:58:02;;;;;;;;;;;27.70;67.30;;;;;;5069842;28;19908;-77
2023/05/19 09:00:28;;;;;;;;;;;27.70;72.80;;;;;;5068783;28;19920;-77
2023/05/19 09:02:54;;;;;;;;;;;28.00;68.60;;;;;;5069409;28;19947;-75
2023/05/19 09:05:19;;;;;;;;;;;27.90;70.70;;;;;;5069712;28;20016;-76
2023/05/19 09:07:45;;;;;;;;;;;28.00;66.20;;;;;;5068339;28;19926;-76
2023/05/19 09:10:15;;;;;;;;;;;28.00;64.00;;;;;;5069865;28;19909;-75
2023/05/19 09:12:47;;;;;;;;;;;28.10;73.40;;;;;;5069687;28;20367;-75
2023/05/19 09:15:16;;;;;;;;;;;28.50;71.20;;;;;;5069693;28;20058;-77
2023/05/19 09:17:43;;;;;;;;;;;28.60;69.00;;;;;;5069625;28;19989;-77
2023/05/19 09:20:12;;;;;;;;;;;28.60;67.30;;;;;;5069637;28;19930;-77
2023/05/19 09:22:41;;;;;;;;;;;28.60;65.30;;;;;;5069581;28;19938;-76
2023/05/19 09:25:16;;;;;;;;;;;28.90;67.90;;;;;;5069595;28;19913;-76
2023/05/19 09:27:42;;;;;;;;;;;29.10;61.40;;;;;;5069150;28;19989;-76
2023/05/19 09:30:08;;;;;;;;;;;28.90;60.60;;;;;;5069497;28;20481;-77
2023/05/19 09:32:34;;;;;;;;;;;28.90;67.60;;;;;;5069023;28;20372;-76
2023/05/19 09:35:01;;;;;;;;;;;28.90;62.00;;;;;;5069209;28;19908;-76
2023/05/19 09:37:27;;;;;;;;;;;28.70;65.10;;;;;;5069400;28;19916;-77
2023/05/19 09:39:53;;;;;;;;;;;28.60;67.40;;;;;;5069449;28;19908;-77
2023/05/19 09:42:25;;;;;;;;;;;28.40;68.00;;;;;;5069213;28;19908;-77
2023/05/19 09:45:01;;;;;;;;;;;28.50;67.50;;;;;;5068275;28;19905;-76
2023/05/19 09:47:26;;;;;;;;;;;28.80;61.30;;;;;;5069174;28;19908;-77
2023/05/19 09:49:52;;;;;;;;;;;28.90;61.90;;;;;;5069197;28;19912;-77
2023/05/19 09:52:18;;;;;;;;;;;29.00;64.00;;;;;;5068615;28;19920;-77
2023/05/19 09:54:44;;;;;;;;;;;29.20;67.80;;;;;;5068672;28;19908;-76
2023/05/19 09:57:09;;;;;;;;;;;29.30;65.60;;;;;;5069112;28;20364;-76
2023/05/19 09:59:37;;;;;;;;;;;29.40;63.20;;;;;;5068878;28;19915;-76
2023/05/19 10:02:03;;;;;;;;;;;29.40;65.00;;;;;;5068847;28;19999;-76
2023/05/19 10:04:29;;;;;;;;;;;29.00;64.80;;;;;;5068413;28;20000;-77
2023/05/19 10:06:58;;;;;;;;;;;28.50;67.70;;;;;;5068574;28;19912;-76
2023/05/19 10:09:24;;;;;;;;;;;27.80;66.10;;;;;;5068827;28;19998;-75
2023/05/19 10:11:54;;;;;;;;;;;27.30;71.30;;;;;;5068672;28;19952;-76
2023/05/19 10:14:22;;;;;;;;;;;26.90;79.10;;;;;;5067347;28;19904;-75
2023/05/19 10:16:49;;;;;;;;;;;26.40;79.10;;;;;;5068630;28;19912;-76
2023/05/19 10:19:15;;;;;;;;;;;26.10;90.20;;;;;;5068707;28;19983;-75
2023/05/19 10:21:41;;;;;;;;;;;25.90;90.20;;;;;;5068946;28;19943;-75
2023/05/19 10:24:06;;;;;;;;;;;25.70;90.50;;;;;;5084330;28;20371;-75
2023/05/19 10:26:32;;;;;;;;;;;25.40;92.40;;;;;;5084058;28;20435;-75
2023/05/19 10:28:58;;;;;;;;;;;25.30;91.90;;;;;;5068302;28;20425;-75
2023/05/19 10:31:24;;;;;;;;;;;25.30;92.10;;;;;;5083962;28;19917;-74
2023/05/19 10:34:17;;;;;;;;;;;25.10;93.40;;;;;;5068430;28;19904;-76
2023/05/19 10:36:54;;;;;;;;;;;24.90;89.10;;;;;;5065480;28;19909;-75
2023/05/19 10:39:34;;;;;;;;;;;24.70;92.30;;;;;;5068284;28;19959;-75
2023/05/19 10:42:08;;;;;;;;;;;24.60;93.80;;;;;;5068342;28;19915;-74
2023/05/19 10:44:52;;;;;;;;;;;24.40;94.80;;;;;;5068797;28;19930;-75
2023/05/19 10:47:24;;;;;;;;;;;24.20;94.30;;;;;;5067135;28;19913;-75
2023/05/19 10:49:53;;;;;;;;;;;24.20;92.60;;;;;;5067136;28;20322;-75
2023/05/19 10:52:20;;;;;;;;;;;24.20;93.40;;;;;;5068414;28;20446;-74
2023/05/19 10:54:46;;;;;;;;;;;24.10;92.40;;;;;;5068362;28;19948;-75
2023/05/19 10:57:18;;;;;;;;;;;24.10;94.10;;;;;;5072788;28;20680;-75
2023/05/19 10:59:44;;;;;;;;;;;24.10;96.40;;;;;;5072516;28;19908;-76
2023/05/19 11:02:10;;;;;;;;;;;24.10;95.60;;;;;;5072080;28;20284;-75
2023/05/19 11:04:49;;;;;;;;;;;24.20;94.80;;;;;;5072586;28;20382;-75
2023/05/19 11:07:19;;;;;;;;;;;24.10;90.50;;;;;;5072383;28;19905;-74
2023/05/19 11:09:48;;;;;;;;;;;24.10;91.00;;;;;;5072190;28;19904;-76
2023/05/19 11:12:18;;;;;;;;;;;24.00;91.70;;;;;;5071954;28;19916;-75
2023/05/19 11:14:44;;;;;;;;;;;23.90;93.00;;;;;;5072028;28;20510;-75
2023/05/19 11:17:13;;;;;;;;;;;23.80;94.20;;;;;;5071714;28;19919;-75
2023/05/19 11:19:40;;;;;;;;;;;23.90;95.10;;;;;;5071790;28;19904;-76
2023/05/19 11:22:07;;;;;;;;;;;24.00;95.40;;;;;;5071635;28;19905;-74
2023/05/19 11:24:34;;;;;;;;;;;24.10;95.40;;;;;;5072160;28;19908;-75
2023/05/19 11:27:16;;;;;;;;;;;24.10;92.60;;;;;;5070157;28;19905;-75
2023/05/19 11:32:26;;;;;;;;;;;24.20;91.60;;;;;;5071342;28;20423;-75
2023/05/19 11:34:53;;;;;;;;;;;24.20;87.30;;;;;;5071778;28;19916;-75
2023/05/19 11:37:19;;;;;;;;;;;24.10;86.80;;;;;;5071653;28;19909;-75
2023/05/19 11:39:46;;;;;;;;;;;23.90;84.70;;;;;;5071633;28;20373;-75
2023/05/19 11:42:11;;;;;;;;;;;23.70;81.20;;;;;;5071939;28;20344;-74
2023/05/19 11:44:37;;;;;;;;;;;23.60;84.40;;;;;;5071596;28;19958;-74
2023/05/19 11:47:03;;;;;;;;;;;23.40;83.80;;;;;;5071483;28;19904;-74
2023/05/19 11:49:29;;;;;;;;;;;23.40;92.70;;;;;;5071336;28;19959;-74
2023/05/19 11:51:55;;;;;;;;;;;23.60;86.00;;;;;;5071396;28;19940;-74
2023/05/19 11:54:20;;;;;;;;;;;23.70;91.00;;;;;;5071546;28;19916;-75
2023/05/19 11:56:46;;;;;;;;;;;23.80;91.80;;;;;;5070150;28;19919;-75
2023/05/19 11:59:11;;;;;;;;;;;23.90;88.70;;;;;;5071076;28;19904;-75
2023/05/19 12:01:37;;;;;;;;;;;24.00;90.70;;;;;;5071258;28;19912;-74
2023/05/19 12:04:07;;;;;;;;;;;24.10;90.60;;;;;;5070999;28;20285;-75
2023/05/19 12:06:32;;;;;;;;;;;24.20;91.60;;;;;;5070651;28;19999;-75
2023/05/19 12:08:58;;;;;;;;;;;24.20;90.00;;;;;;5070403;28;20003;-75
2023/05/19 12:11:26;;;;;;;;;;;24.30;90.90;;;;;;5070814;28;20335;-75
2023/05/19 12:13:53;;;;;;;;;;;24.30;89.80;;;;;;5070788;28;19963;-74
2023/05/19 12:16:19;;;;;;;;;;;24.40;90.40;;;;;;5070737;28;20319;-75
2023/05/19 12:18:45;;;;;;;;;;;24.50;89.50;;;;;;5070602;28;19908;-75
2023/05/19 12:21:11;;;;;;;;;;;24.60;87.80;;;;;;5070647;28;19915;-75
2023/05/19 12:23:37;;;;;;;;;;;24.60;89.90;;;;;;5070855;28;19905;-75
2023/05/19 12:26:03;;;;;;;;;;;24.50;88.20;;;;;;5070795;28;19958;-75
2023/05/19 12:28:28;;;;;;;;;;;24.50;86.70;;;;;;5086411;28;19958;-76
2023/05/19 12:30:57;;;;;;;;;;;24.60;88.90;;;;;;5085791;28;19952;-75
2023/05/19 12:33:23;;;;;;;;;;;24.50;86.50;;;;;;5067798;28;19919;-76
2023/05/19 12:35:48;;;;;;;;;;;24.40;87.30;;;;;;5070835;28;19908;-75
2023/05/19 12:38:14;;;;;;;;;;;24.40;87.10;;;;;;5070597;28;20493;-75
2023/05/19 12:40:40;;;;;;;;;;;24.40;87.00;;;;;;5070164;28;19904;-74
2023/05/19 12:43:08;;;;;;;;;;;24.40;88.90;;;;;;5070232;28;19953;-75
2023/05/19 12:45:38;;;;;;;;;;;24.40;88.10;;;;;;5070491;28;19908;-75
2023/05/19 12:48:05;;;;;;;;;;;24.30;85.30;;;;;;5070516;28;20006;-75
2023/05/19 12:50:31;;;;;;;;;;;24.20;86.50;;;;;;5069672;28;19908;-75
2023/05/19 12:52:58;;;;;;;;;;;24.00;85.50;;;;;;5070028;28;19912;-74
2023/05/19 12:55:24;;;;;;;;;;;23.80;87.40;;;;;;5070272;28;19909;-76
2023/05/19 12:57:51;;;;;;;;;;;23.70;83.10;;;;;;5070154;28;19914;-74
2023/05/19 13:00:20;;;;;;;;;;;23.70;86.10;;;;;;5070396;28;19911;-74
2023/05/19 13:03:03;;;;;;;;;;;23.80;89.30;;;;;;5070069;28;20081;-74
2023/05/19 13:05:30;;;;;;;;;;;23.90;90.40;;;;;;5070113;28;19904;-73
2023/05/19 13:08:22;;;;;;;;;;;24.10;90.10;;;;;;5069814;28;19911;-75
2023/05/19 13:10:48;;;;;;;;;;;24.20;84.40;;;;;;5068553;28;19920;-75
2023/05/19 13:13:14;;;;;;;;;;;24.20;85.50;;;;;;5085675;28;20266;-74
2023/05/19 13:15:40;;;;;;;;;;;24.30;89.40;;;;;;5069634;28;19919;-75
2023/05/19 13:18:08;;;;;;;;;;;24.40;88.00;;;;;;5069667;28;20062;-75
2023/05/19 13:20:34;;;;;;;;;;;24.40;87.10;;;;;;5068521;28;20005;-75
2023/05/19 13:23:00;;;;;;;;;;;24.50;86.90;;;;;;5069277;28;19914;-74
2023/05/19 13:25:26;;;;;;;;;;;24.40;83.90;;;;;;5068491;28;20014;-75
2023/05/19 13:27:53;;;;;;;;;;;24.50;84.10;;;;;;5069562;28;19991;-76
2023/05/19 13:30:19;;;;;;;;;;;24.50;85.50;;;;;;5069227;28;19924;-75
2023/05/19 13:32:45;;;;;;;;;;;24.50;87.80;;;;;;5069368;28;19916;-74
2023/05/19 13:35:11;;;;;;;;;;;24.50;88.30;;;;;;5069701;28;19904;-76
2023/05/19 13:37:38;;;;;;;;;;;24.50;90.50;;;;;;5069061;28;20033;-77
2023/05/19 13:40:04;;;;;;;;;;;24.30;86.10;;;;;;5084591;28;20297;-76
2023/05/19 13:42:30;;;;;;;;;;;24.20;85.20;;;;;;5069267;28;19908;-75
2023/05/19 13:44:56;;;;;;;;;;;24.10;84.30;;;;;;5068937;28;19956;-75
2023/05/19 13:47:22;;;;;;;;;;;24.10;79.30;;;;;;5069323;28;20369;-76
2023/05/19 13:49:47;;;;;;;;;;;24.00;83.40;;;;;;5069079;28;19916;-75
2023/05/19 13:52:13;;;;;;;;;;;24.10;90.10;;;;;;5069020;28;19916;-74
2023/05/19 13:54:39;;;;;;;;;;;24.10;86.50;;;;;;5069267;28;19911;-75
2023/05/19 13:57:05;;;;;;;;;;;24.10;80.50;;;;;;5068776;28;20003;-76
2023/05/19 13:59:30;;;;;;;;;;;24.10;76.10;;;;;;5069258;28;19904;-76
2023/05/19 14:01:56;;;;;;;;;;;24.10;74.40;;;;;;5069167;28;19908;-75
2023/05/19 14:04:24;;;;;;;;;;;24.20;75.90;;;;;;5069230;28;19908;-75
2023/05/19 14:06:50;;;;;;;;;;;24.30;83.60;;;;;;5068664;28;19905;-75
2023/05/19 14:09:15;;;;;;;;;;;24.30;86.60;;;;;;5068735;28;19916;-76
2023/05/19 14:11:41;;;;;;;;;;;24.40;80.60;;;;;;5068809;28;19954;-77
2023/05/19 14:14:07;;;;;;;;;;;24.50;76.60;;;;;;5068913;28;20352;-77
2023/05/19 14:16:32;;;;;;;;;;;24.50;70.70;;;;;;5068648;28;19916;-77